Terminal Aerodrome Forecast
Issued by NWS

Home | Current Version | Previous Version | Text Only | Print | Product List | Glossary On
Versions: 1 2 3 4 5 6 7 8 9 10 11 12 13
000
FTUS42 KGSP 231100
TAFAND
TAF
KAND 231127Z 2312/2412 00000KT P6SM SCT250
     FM232100 33004KT P6SM VCSH BKN050
     FM240100 01003KT P6SM BKN045 PROB30 2401/2407 4SM TSRA BKN040CB
     FM240700 04006KT P6SM VCSH SCT050
     FM241000 04007KT 5SM BR SCT050=

USA.gov is the U.S. government's official web portal to all federal, state and local government web resources and services.